Time;durP1;ratioP1;P1;durP2;ratioP2;P2;SDS_P1;SDS_P2;PMS_P1;PMS_P2;Temp;Humidity;BMP_temperature;BMP_pressure;BME280_temperature;BME280_humidity;BME280_pressure;Samples;Min_cycle;Max_cycle;Signal;HPM_P1;HPM_P2
2023/01/10 00:01:26;;;;;;;20.67;2.08;;;5.40;99.90;;;;;;5079817;28;20261;-67
2023/01/10 00:03:52;;;;;;;19.02;2.22;;;5.40;99.90;;;;;;5079063;28;20036;-67
2023/01/10 00:06:18;;;;;;;14.35;2.00;;;5.30;99.90;;;;;;5075460;28;20039;-67
2023/01/10 00:08:43;;;;;;;16.23;1.95;;;5.30;99.90;;;;;;5079377;28;20043;-67
2023/01/10 00:13:57;;;;;;;15.32;2.25;;;5.20;99.90;;;;;;5019545;28;20126;-67
2023/01/10 00:16:23;;;;;;;19.08;2.58;;;5.10;99.90;;;;;;5066995;28;20547;-67
2023/01/10 00:18:49;;;;;;;15.85;2.25;;;5.00;99.90;;;;;;5080056;28;20060;-67
2023/01/10 00:21:15;;;;;;;14.40;2.47;;;5.00;99.90;;;;;;5084108;28;20117;-67
2023/01/10 00:23:42;;;;;;;19.25;2.33;;;4.90;99.90;;;;;;5077526;28;20397;-67
2023/01/10 00:26:09;;;;;;;19.17;2.63;;;4.90;99.90;;;;;;5077449;28;20035;-67
2023/01/10 00:28:35;;;;;;;19.27;2.40;;;4.90;99.90;;;;;;5080188;28;20464;-67
2023/01/10 00:31:05;;;;;;;19.23;3.00;;;4.90;99.90;;;;;;5078845;28;20062;-67
2023/01/10 00:33:35;;;;;;;21.13;2.97;;;4.90;99.90;;;;;;5076773;28;20040;-67
2023/01/10 00:36:03;;;;;;;19.80;2.92;;;4.90;99.90;;;;;;5079426;28;20127;-67
2023/01/10 00:38:30;;;;;;;24.10;2.90;;;5.00;99.90;;;;;;5078971;28;20024;-67
2023/01/10 00:40:56;;;;;;;22.40;3.40;;;5.10;99.90;;;;;;5077660;28;20059;-67
2023/01/10 00:46:07;;;;;;;22.65;3.40;;;5.30;99.90;;;;;;5072024;28;20056;-67
2023/01/10 00:48:33;;;;;;;22.17;2.85;;;5.30;99.90;;;;;;5083307;28;20038;-67
2023/01/10 00:50:59;;;;;;;22.08;3.15;;;5.30;99.90;;;;;;5073243;28;20036;-67
2023/01/10 00:53:24;;;;;;;20.40;2.65;;;5.40;99.90;;;;;;5059116;28;20032;-67
2023/01/10 00:55:50;;;;;;;21.85;3.08;;;5.40;99.90;;;;;;5079529;28;20081;-67
2023/01/10 00:58:16;;;;;;;26.25;3.25;;;5.40;99.90;;;;;;5077732;28;20080;-67
2023/01/10 01:00:45;;;;;;;25.95;3.50;;;5.40;99.90;;;;;;5075819;28;20454;-67
2023/01/10 01:03:12;;;;;;;21.10;2.97;;;5.40;99.90;;;;;;5074178;28;20044;-67
2023/01/10 01:05:42;;;;;;;23.02;3.15;;;5.50;99.90;;;;;;5079542;28;20403;-67
2023/01/10 01:08:10;;;;;;;18.95;3.25;;;5.50;99.90;;;;;;5059494;28;20040;-67
2023/01/10 01:10:35;;;;;;;22.90;2.63;;;5.50;99.90;;;;;;5079851;28;20579;-67
2023/01/10 01:13:11;;;;;;;25.65;3.53;;;5.50;99.90;;;;;;5084285;28;20127;-67
2023/01/10 01:15:37;;;;;;;26.40;3.25;;;5.50;99.90;;;;;;5076717;28;20044;-67
2023/01/10 01:18:04;;;;;;;24.65;3.65;;;5.50;99.90;;;;;;5063083;28;20036;-67
2023/01/10 01:20:31;;;;;;;23.88;3.97;;;5.50;99.90;;;;;;5074606;28;20492;-67
2023/01/10 01:22:57;;;;;;;19.30;3.40;;;5.50;99.90;;;;;;5081837;28;20048;-67
2023/01/10 01:25:22;;;;;;;23.05;2.90;;;5.50;99.90;;;;;;5081135;28;20137;-67
2023/01/10 01:27:48;;;;;;;21.83;2.88;;;5.60;99.90;;;;;;5077521;28;20040;-67
2023/01/10 01:30:15;;;;;;;16.40;2.10;;;5.60;99.90;;;;;;5083161;28;20124;-67
2023/01/10 01:32:40;;;;;;;19.23;2.92;;;5.70;99.90;;;;;;5073929;28;20082;-67
2023/01/10 01:35:08;;;;;;;15.15;1.98;;;5.70;99.90;;;;;;5080210;28;20100;-67
2023/01/10 01:37:33;;;;;;;12.70;2.70;;;5.60;99.90;;;;;;5064617;28;20044;-67
2023/01/10 01:39:59;;;;;;;19.50;2.58;;;5.60;99.90;;;;;;5079719;28;20448;-67
2023/01/10 01:42:31;;;;;;;17.23;2.95;;;5.60;99.90;;;;;;5082374;28;20032;-67
2023/01/10 01:45:16;;;;;;;16.95;2.60;;;5.50;99.90;;;;;;5084509;28;20054;-67
2023/01/10 01:48:12;;;;;;;19.95;2.53;;;5.40;99.90;;;;;;5079058;28;20048;-67
2023/01/10 01:51:04;;;;;;;14.93;2.72;;;5.30;99.90;;;;;;5083958;28;20041;-67
2023/01/10 01:53:36;;;;;;;20.40;2.95;;;5.20;99.90;;;;;;5084836;28;20063;-67
2023/01/10 01:56:12;;;;;;;26.80;3.95;;;5.10;99.90;;;;;;5087990;28;20039;-67
2023/01/10 01:59:00;;;;;;;21.95;2.95;;;5.10;99.90;;;;;;5063367;28;20400;-67
2023/01/10 02:01:28;;;;;;;19.55;3.13;;;5.10;99.90;;;;;;5087262;28;20047;-67
2023/01/10 02:04:01;;;;;;;22.80;3.10;;;5.00;99.90;;;;;;5082452;28;20089;-67
2023/01/10 02:06:27;;;;;;;22.20;3.22;;;5.00;99.90;;;;;;5081748;28;20045;-67
2023/01/10 02:09:14;;;;;;;27.95;3.13;;;4.90;99.90;;;;;;5082056;28;20043;-67
2023/01/10 02:11:40;;;;;;;21.80;2.90;;;4.90;99.90;;;;;;5083144;28;20044;-67
2023/01/10 02:14:10;;;;;;;17.77;2.55;;;4.80;99.90;;;;;;5078515;28;20154;-67
2023/01/10 02:16:35;;;;;;;21.10;2.67;;;4.90;99.90;;;;;;5082472;28;20083;-67
2023/01/10 02:19:03;;;;;;;21.70;3.10;;;4.90;99.90;;;;;;5078617;28;20459;-67
2023/01/10 02:21:47;;;;;;;15.57;3.13;;;4.80;99.90;;;;;;5081951;28;20058;-67
2023/01/10 02:24:26;;;;;;;19.70;2.97;;;4.80;99.90;;;;;;5081714;28;20132;-67
2023/01/10 02:27:10;;;;;;;22.20;2.90;;;4.80;99.90;;;;;;5078279;28;20044;-67
2023/01/10 02:30:03;;;;;;;18.70;3.07;;;4.70;99.90;;;;;;5080462;28;20037;-67
2023/01/10 02:33:04;;;;;;;17.90;2.72;;;4.70;99.90;;;;;;5081707;28;20286;-67
2023/01/10 02:35:38;;;;;;;22.95;3.20;;;4.60;99.90;;;;;;5038808;28;20059;-67
2023/01/10 02:38:18;;;;;;;13.27;2.58;;;4.60;99.90;;;;;;5082796;28;20043;-67
2023/01/10 02:41:14;;;;;;;19.75;2.30;;;4.60;99.90;;;;;;5080820;28;20123;-67
2023/01/10 02:43:52;;;;;;;20.55;2.40;;;4.60;99.90;;;;;;5080626;28;20260;-67
2023/01/10 02:46:27;;;;;;;20.88;2.63;;;4.60;99.90;;;;;;5076551;28;20394;-67
2023/01/10 02:48:54;;;;;;;17.42;2.28;;;4.60;99.90;;;;;;5081762;28;20093;-67
2023/01/10 02:51:23;;;;;;;19.65;3.20;;;4.60;99.90;;;;;;5083699;28;20040;-67
2023/01/10 02:54:06;;;;;;;21.98;3.00;;;4.60;99.90;;;;;;5075111;28;20081;-67
2023/01/10 02:56:56;;;;;;;22.90;3.15;;;4.70;99.90;;;;;;5058335;28;20442;-67
2023/01/10 02:59:58;;;;;;;17.20;3.03;;;4.80;99.90;;;;;;5079565;28;20488;-67
2023/01/10 03:02:36;;;;;;;17.38;3.40;;;4.90;99.90;;;;;;5082871;28;20047;-67
2023/01/10 03:05:09;;;;;;;21.90;3.22;;;4.90;99.90;;;;;;5083275;28;20059;-67
2023/01/10 03:08:03;;;;;;;22.52;3.25;;;5.00;99.90;;;;;;5066125;28;20106;-67
2023/01/10 03:10:58;;;;;;;19.92;3.47;;;5.10;99.90;;;;;;5080748;28;20066;-67
2023/01/10 03:13:38;;;;;;;23.60;3.13;;;5.10;99.90;;;;;;5087048;28;20029;-67
2023/01/10 03:16:08;;;;;;;22.15;3.28;;;5.20;99.90;;;;;;5078523;28;20282;-67
2023/01/10 03:18:42;;;;;;;17.92;3.10;;;5.20;99.90;;;;;;5082737;28;20032;-67
2023/01/10 03:21:10;;;;;;;15.70;2.83;;;5.30;99.90;;;;;;5079784;28;20048;-67
2023/01/10 03:23:37;;;;;;;17.58;2.97;;;5.30;99.90;;;;;;5078156;28;20093;-67
2023/01/10 03:26:05;;;;;;;17.55;3.22;;;5.40;99.90;;;;;;5076971;28;20043;-67
2023/01/10 03:28:40;;;;;;;15.98;3.25;;;5.40;99.90;;;;;;5084276;28;20072;-67
2023/01/10 03:31:20;;;;;;;17.42;3.22;;;5.40;99.90;;;;;;5076297;28;20040;-67
2023/01/10 03:33:47;;;;;;;27.42;4.13;;;5.40;99.90;;;;;;5064849;28;20483;-67
2023/01/10 03:36:36;;;;;;;19.45;3.60;;;5.40;99.90;;;;;;5084652;28;20434;-67
2023/01/10 03:39:23;;;;;;;19.95;2.67;;;5.30;99.90;;;;;;5047154;28;20062;-67
2023/01/10 03:42:19;;;;;;;17.63;2.78;;;5.30;99.90;;;;;;5081616;28;20099;-67
2023/01/10 03:45:08;;;;;;;12.40;2.42;;;5.30;99.90;;;;;;5080347;28;20036;-67
2023/01/10 03:47:45;;;;;;;14.93;2.67;;;5.20;99.90;;;;;;5050112;28;20040;-67
2023/01/10 03:50:20;;;;;;;19.50;3.30;;;5.20;99.90;;;;;;5078325;28;20040;-67
2023/01/10 03:52:46;;;;;;;18.52;3.03;;;5.20;99.90;;;;;;5078640;28;20040;-67
2023/01/10 03:55:17;;;;;;;20.27;2.67;;;5.20;99.90;;;;;;5079272;28;20218;-67
2023/01/10 03:57:44;;;;;;;24.77;3.83;;;5.30;99.90;;;;;;5080370;28;20066;-67
2023/01/10 04:00:11;;;;;;;16.58;2.97;;;5.30;99.90;;;;;;5062337;28;20040;-67
2023/01/10 04:02:37;;;;;;;18.92;3.33;;;5.40;99.90;;;;;;5075334;28;20047;-67
2023/01/10 04:05:03;;;;;;;20.33;3.13;;;5.50;99.90;;;;;;5081603;28;20408;-67
2023/01/10 04:07:29;;;;;;;22.15;2.83;;;5.40;99.90;;;;;;5059088;28;20040;-67
2023/01/10 04:09:54;;;;;;;22.25;3.15;;;5.50;99.90;;;;;;5083696;28;20040;-67
2023/01/10 04:12:20;;;;;;;20.65;3.20;;;5.50;99.90;;;;;;5073736;28;20148;-67
2023/01/10 04:14:46;;;;;;;26.67;4.03;;;5.60;99.90;;;;;;5055970;28;20043;-67
2023/01/10 04:17:14;;;;;;;26.13;3.70;;;5.60;99.90;;;;;;5081710;28;20033;-67
2023/01/10 04:19:39;;;;;;;32.05;4.28;;;5.70;99.90;;;;;;5062424;28;20047;-67
2023/01/10 04:22:05;;;;;;;25.60;3.05;;;5.70;99.90;;;;;;5080999;28;20518;-67
2023/01/10 04:24:31;;;;;;;21.20;3.55;;;5.70;99.90;;;;;;5061456;28;20470;-67
2023/01/10 04:26:57;;;;;;;22.20;3.58;;;5.70;99.90;;;;;;5082437;28;20041;-67
2023/01/10 04:29:23;;;;;;;20.60;3.20;;;5.70;99.90;;;;;;5080964;28;20040;-67
2023/01/10 04:31:49;;;;;;;23.30;4.10;;;5.80;99.90;;;;;;5046303;28;20536;-68
2023/01/10 04:34:15;;;;;;;27.35;4.15;;;5.80;99.90;;;;;;5080230;28;20531;-68
2023/01/10 04:36:41;;;;;;;29.08;3.45;;;5.80;99.90;;;;;;5066816;28;20157;-68
2023/01/10 04:39:07;;;;;;;21.52;3.35;;;5.90;99.90;;;;;;5054826;28;20548;-68
2023/01/10 04:41:33;;;;;;;32.47;3.55;;;5.90;99.90;;;;;;5076496;28;20047;-68
2023/01/10 04:43:58;;;;;;;27.10;3.55;;;5.90;99.90;;;;;;5080304;28;20293;-68
2023/01/10 04:46:24;;;;;;;27.10;3.30;;;5.90;99.90;;;;;;5082619;28;20036;-67
2023/01/10 04:48:50;;;;;;;29.50;4.35;;;5.90;99.90;;;;;;5073839;28;20040;-67
2023/01/10 04:51:16;;;;;;;26.00;3.38;;;5.80;99.90;;;;;;5079109;28;20309;-67
2023/01/10 04:53:42;;;;;;;22.23;2.95;;;5.80;99.90;;;;;;5059692;28;20044;-67
2023/01/10 04:56:13;;;;;;;23.10;2.72;;;5.70;99.90;;;;;;5078945;28;20074;-67
2023/01/10 04:58:39;;;;;;;23.10;4.05;;;5.70;99.90;;;;;;5079278;28;20049;-68
2023/01/10 05:01:14;;;;;;;23.63;3.63;;;5.70;99.90;;;;;;5078143;28;20587;-67
2023/01/10 05:03:40;;;;;;;25.67;3.85;;;5.70;99.90;;;;;;5082280;28;20126;-67
2023/01/10 05:06:06;;;;;;;23.48;3.15;;;5.70;99.90;;;;;;5078925;28;20043;-67
2023/01/10 05:08:32;;;;;;;25.45;3.85;;;5.70;99.90;;;;;;5077821;28;20051;-67
2023/01/10 05:10:58;;;;;;;26.33;3.28;;;5.80;99.90;;;;;;5078885;28;20028;-67
2023/01/10 05:13:25;;;;;;;30.83;3.30;;;5.80;99.90;;;;;;5078776;28;20092;-67
2023/01/10 05:15:55;;;;;;;26.50;4.68;;;5.70;99.90;;;;;;5066773;28;20109;-67
2023/01/10 05:18:21;;;;;;;23.67;3.80;;;5.70;99.90;;;;;;5063408;28;20388;-67
2023/01/10 05:20:47;;;;;;;28.17;3.65;;;5.60;99.90;;;;;;5063388;28;20052;-67
2023/01/10 05:23:13;;;;;;;24.45;3.42;;;5.60;99.90;;;;;;5087746;28;20032;-67
2023/01/10 05:25:38;;;;;;;29.55;3.80;;;5.60;99.90;;;;;;5064788;28;20039;-67
2023/01/10 05:28:04;;;;;;;29.58;3.88;;;5.60;99.90;;;;;;5080574;28;20045;-67
2023/01/10 05:30:30;;;;;;;28.52;3.47;;;5.50;99.90;;;;;;5083574;28;20058;-67
2023/01/10 05:32:55;;;;;;;28.42;3.72;;;5.60;99.90;;;;;;5088890;28;20412;-67
2023/01/10 05:35:21;;;;;;;25.80;3.60;;;5.60;99.90;;;;;;5086083;28;20036;-67
2023/01/10 05:37:47;;;;;;;28.58;4.18;;;5.60;99.90;;;;;;5082770;28;20384;-67
2023/01/10 05:40:13;;;;;;;28.00;4.53;;;5.60;99.90;;;;;;5081400;28;20044;-67
2023/01/10 05:42:38;;;;;;;28.52;3.38;;;5.70;99.90;;;;;;5084058;28;20090;-67
2023/01/10 05:45:04;;;;;;;31.08;3.28;;;5.60;99.90;;;;;;5086986;28;20039;-67
2023/01/10 05:47:30;;;;;;;29.08;3.35;;;5.60;99.90;;;;;;5081076;28;20037;-67
2023/01/10 05:49:56;;;;;;;28.50;4.07;;;5.60;99.90;;;;;;5083566;28;20035;-67
2023/01/10 05:52:21;;;;;;;23.20;3.90;;;5.50;99.90;;;;;;5084548;28;20044;-67
2023/01/10 05:54:47;;;;;;;33.92;4.72;;;5.60;99.90;;;;;;5084120;28;20043;-67
2023/01/10 05:57:13;;;;;;;33.40;4.03;;;5.60;99.90;;;;;;5081585;28;20412;-67
2023/01/10 05:59:38;;;;;;;24.02;4.00;;;5.60;99.90;;;;;;5084624;28;20048;-67
2023/01/10 06:02:04;;;;;;;26.60;4.47;;;5.50;99.90;;;;;;5080543;28;20114;-67
2023/01/10 06:04:30;;;;;;;26.85;4.32;;;5.50;99.90;;;;;;5084045;28;20071;-67
2023/01/10 06:06:56;;;;;;;29.80;4.72;;;5.50;99.90;;;;;;5080567;28;20032;-67
2023/01/10 06:09:22;;;;;;;33.17;4.30;;;5.50;99.90;;;;;;5078477;28;20033;-67
2023/01/10 06:11:48;;;;;;;29.65;3.85;;;5.40;99.90;;;;;;5085058;28;20033;-67
2023/01/10 06:14:17;;;;;;;31.13;4.03;;;5.40;99.90;;;;;;5064530;28;20094;-67
2023/01/10 06:16:44;;;;;;;29.27;4.05;;;5.40;99.90;;;;;;5078383;28;20044;-67
2023/01/10 06:19:10;;;;;;;29.63;4.22;;;5.40;99.90;;;;;;5084340;28;20043;-67
2023/01/10 06:21:36;;;;;;;29.55;3.90;;;5.40;99.90;;;;;;5065542;28;20044;-67
2023/01/10 06:24:01;;;;;;;29.25;4.60;;;5.40;99.90;;;;;;5082434;28;20550;-67
2023/01/10 06:26:27;;;;;;;33.17;4.38;;;5.40;99.90;;;;;;5062296;28;20098;-67
2023/01/10 06:28:53;;;;;;;26.90;3.45;;;5.40;99.90;;;;;;5069622;28;20111;-67
2023/01/10 06:31:19;;;;;;;28.73;4.47;;;5.50;99.90;;;;;;5064080;28;20047;-67
2023/01/10 06:33:44;;;;;;;31.02;4.15;;;5.50;99.90;;;;;;5084788;28;20040;-67
2023/01/10 06:36:10;;;;;;;28.67;4.28;;;5.50;99.90;;;;;;5083284;28;20408;-67
2023/01/10 06:38:36;;;;;;;35.90;4.95;;;5.50;99.90;;;;;;5083360;28;20065;-67
2023/01/10 06:41:11;;;;;;;34.08;4.70;;;5.50;99.90;;;;;;5065242;28;20106;-67
2023/01/10 06:43:42;;;;;;;34.70;4.30;;;5.50;99.90;;;;;;5083271;28;20075;-67
2023/01/10 06:46:08;;;;;;;31.83;4.18;;;5.50;99.90;;;;;;5084622;28;20043;-67
2023/01/10 06:48:38;;;;;;;26.27;4.82;;;5.50;99.90;;;;;;5087280;28;20105;-67
2023/01/10 06:51:04;;;;;;;33.20;4.60;;;5.50;99.90;;;;;;5070550;28;20055;-67
2023/01/10 06:53:31;;;;;;;26.60;4.65;;;5.40;99.90;;;;;;5084024;28;20395;-67
2023/01/10 06:55:56;;;;;;;35.00;4.45;;;5.30;99.90;;;;;;5086282;28;20032;-67
2023/01/10 06:58:22;;;;;;;25.42;4.28;;;5.30;99.90;;;;;;5084779;28;20445;-67
2023/01/10 07:00:49;;;;;;;33.10;4.15;;;5.20;99.90;;;;;;5084715;28;20042;-67
2023/01/10 07:03:15;;;;;;;31.45;4.60;;;5.10;99.90;;;;;;5084075;28;20040;-67
2023/01/10 07:05:41;;;;;;;24.20;4.10;;;5.00;99.90;;;;;;5071147;28;20676;-67
2023/01/10 07:08:07;;;;;;;27.80;4.15;;;5.00;99.90;;;;;;5081906;28;20036;-67
2023/01/10 07:10:32;;;;;;;23.88;4.28;;;5.00;99.90;;;;;;5082492;28;20123;-67
2023/01/10 07:12:58;;;;;;;38.10;4.68;;;4.90;99.90;;;;;;5078583;28;20040;-67
2023/01/10 07:15:25;;;;;;;36.10;4.78;;;5.00;99.90;;;;;;5081478;28;20529;-67
2023/01/10 07:17:51;;;;;;;23.65;3.95;;;5.00;99.90;;;;;;5082741;28;20036;-67
2023/01/10 07:20:17;;;;;;;28.95;5.00;;;5.00;99.90;;;;;;5080164;28;20484;-67
2023/01/10 07:22:43;;;;;;;30.15;4.70;;;5.10;99.90;;;;;;5082581;28;20052;-67
2023/01/10 07:25:08;;;;;;;26.67;4.35;;;5.10;99.90;;;;;;5080078;28;20044;-67
2023/01/10 07:27:34;;;;;;;30.70;5.32;;;5.10;99.90;;;;;;5084163;28;20040;-67
2023/01/10 07:30:00;;;;;;;21.10;4.13;;;5.10;99.90;;;;;;5079679;28;20033;-67
2023/01/10 07:32:26;;;;;;;29.27;4.50;;;5.20;99.90;;;;;;5084388;28;20452;-67
2023/01/10 07:34:52;;;;;;;27.45;4.47;;;5.30;99.90;;;;;;5082517;28;20173;-67
2023/01/10 07:37:17;;;;;;;28.70;5.25;;;5.20;99.90;;;;;;5066317;28;20052;-67
2023/01/10 07:39:43;;;;;;;36.67;5.40;;;5.20;99.90;;;;;;5081351;28;20042;-67
2023/01/10 07:42:09;;;;;;;34.60;5.03;;;5.30;99.90;;;;;;5065215;28;20036;-67
2023/01/10 07:44:34;;;;;;;33.30;5.20;;;5.30;99.90;;;;;;5083413;28;20044;-67
2023/01/10 07:47:00;;;;;;;38.33;5.65;;;5.30;99.90;;;;;;5063455;28;20036;-67
2023/01/10 07:49:26;;;;;;;36.35;4.53;;;5.20;99.90;;;;;;5087764;28;20039;-67
2023/01/10 07:51:52;;;;;;;30.70;4.70;;;5.20;99.90;;;;;;5085460;28;20047;-67
2023/01/10 07:54:18;;;;;;;32.35;4.72;;;5.30;99.90;;;;;;5083347;28;20036;-67
2023/01/10 07:56:46;;;;;;;35.85;4.30;;;5.20;99.90;;;;;;5084827;28;20106;-67
2023/01/10 07:59:12;;;;;;;29.27;4.63;;;5.30;99.90;;;;;;5083158;28;20181;-67
2023/01/10 08:01:38;;;;;;;27.85;4.90;;;5.30;99.90;;;;;;5084717;28;20068;-67
2023/01/10 08:04:04;;;;;;;26.52;4.40;;;5.30;99.90;;;;;;5083951;28;20032;-67
2023/01/10 08:06:30;;;;;;;33.38;5.32;;;5.30;99.90;;;;;;5079951;28;20086;-66
2023/01/10 08:08:56;;;;;;;34.00;5.90;;;5.40;99.90;;;;;;5058281;28;20041;-67
2023/01/10 08:11:22;;;;;;;34.78;5.20;;;5.40;99.90;;;;;;5087399;28;20032;-67
2023/01/10 08:13:48;;;;;;;29.63;5.13;;;5.30;99.90;;;;;;5077717;28;20541;-67
2023/01/10 08:16:14;;;;;;;28.27;4.97;;;5.40;99.90;;;;;;5064464;28;20048;-67
2023/01/10 08:18:43;;;;;;;33.38;5.82;;;5.40;99.90;;;;;;5082612;28;20032;-67
2023/01/10 08:21:09;;;;;;;30.02;5.75;;;5.50;99.90;;;;;;5078782;28;20469;-67
2023/01/10 08:23:35;;;;;;;33.95;6.10;;;5.50;99.90;;;;;;5084044;28;20046;-67
2023/01/10 08:26:01;;;;;;;26.40;5.68;;;5.60;99.90;;;;;;5080676;28;20036;-66
2023/01/10 08:28:28;;;;;;;29.88;5.90;;;5.60;99.90;;;;;;5081248;28;20048;-67
2023/01/10 08:30:54;;;;;;;31.10;5.15;;;5.60;99.90;;;;;;5060065;28;20048;-67
2023/01/10 08:33:24;;;;;;;27.13;4.82;;;5.60;99.90;;;;;;5082509;28;20032;-66
2023/01/10 08:35:50;;;;;;;29.85;4.75;;;5.60;99.90;;;;;;5078620;28;20597;-66
2023/01/10 08:38:16;;;;;;;20.42;4.53;;;5.60;99.90;;;;;;5050532;28;20439;-66
2023/01/10 08:40:42;;;;;;;30.52;4.93;;;5.60;99.90;;;;;;5060238;28;20406;-66
2023/01/10 08:43:11;;;;;;;23.05;3.67;;;5.50;99.90;;;;;;5068261;28;20044;-66
2023/01/10 08:45:37;;;;;;;26.58;4.38;;;5.50;99.90;;;;;;5080731;28;20126;-66
2023/01/10 08:48:04;;;;;;;32.83;4.72;;;5.50;99.90;;;;;;5078903;28;20268;-66
2023/01/10 08:50:30;;;;;;;29.45;4.47;;;5.50;99.90;;;;;;5059711;28;20040;-66
2023/01/10 08:52:58;;;;;;;24.98;5.15;;;5.60;99.90;;;;;;5082516;28;20093;-66
2023/01/10 08:55:24;;;;;;;29.27;4.82;;;5.60;99.90;;;;;;5061638;28;20105;-67
2023/01/10 08:57:50;;;;;;;24.58;4.38;;;5.70;99.90;;;;;;5078040;28;20472;-66
2023/01/10 09:00:16;;;;;;;28.90;4.55;;;5.60;99.90;;;;;;5079382;28;20075;-66
2023/01/10 09:02:43;;;;;;;35.53;5.32;;;5.60;99.90;;;;;;5080864;28;20429;-66
2023/01/10 09:05:09;;;;;;;25.00;4.40;;;5.70;99.90;;;;;;5081710;28;20046;-67
2023/01/10 09:07:35;;;;;;;24.20;3.85;;;5.70;99.90;;;;;;5081569;28;20048;-66
2023/01/10 09:10:01;;;;;;;28.20;5.00;;;5.70;99.90;;;;;;5083162;28;20089;-66
2023/01/10 09:15:11;;;;;;;27.45;4.30;;;5.80;99.90;;;;;;5062432;28;20044;-67
2023/01/10 09:17:37;;;;;;;25.50;4.40;;;5.80;99.90;;;;;;5083005;28;20051;-67
2023/01/10 09:20:08;;;;;;;28.17;4.35;;;5.90;99.90;;;;;;5083631;28;20032;-67
2023/01/10 09:22:38;;;;;;;27.77;5.20;;;6.00;99.90;;;;;;5082810;28;20111;-67
2023/01/10 09:25:05;;;;;;;24.40;4.15;;;6.10;99.90;;;;;;5082888;28;20040;-67
2023/01/10 09:27:31;;;;;;;31.38;4.93;;;6.10;99.90;;;;;;5083637;28;20032;-67
2023/01/10 09:29:57;;;;;;;27.20;4.38;;;6.20;99.90;;;;;;5084054;28;20126;-67
2023/01/10 09:32:24;;;;;;;26.13;4.22;;;6.30;99.90;;;;;;5081040;28;20028;-67
2023/01/10 09:34:49;;;;;;;28.05;5.10;;;6.30;99.90;;;;;;5082815;28;20064;-67
2023/01/10 09:37:15;;;;;;;24.42;4.13;;;6.40;99.90;;;;;;5081988;28;20063;-67
2023/01/10 09:39:41;;;;;;;23.67;4.60;;;6.50;99.90;;;;;;5061859;28;20055;-67
2023/01/10 09:42:42;;;;;;;26.05;4.15;;;6.70;99.90;;;;;;5077940;28;20064;-67
2023/01/10 09:45:41;;;;;;;33.30;5.05;;;6.80;99.90;;;;;;5082297;28;20040;-67
2023/01/10 09:48:25;;;;;;;24.73;4.68;;;6.90;99.90;;;;;;5058680;28;20056;-67
2023/01/10 09:51:19;;;;;;;28.10;5.03;;;7.00;99.90;;;;;;5086002;28;20047;-67
2023/01/10 09:53:46;;;;;;;30.42;4.47;;;7.00;99.90;;;;;;5083894;28;20041;-67
2023/01/10 09:56:14;;;;;;;23.27;3.97;;;7.00;99.90;;;;;;5083324;28;20028;-67
2023/01/10 09:58:42;;;;;;;22.15;4.53;;;7.00;99.90;;;;;;5073687;28;20048;-67
2023/01/10 10:01:35;;;;;;;21.95;5.13;;;7.00;99.90;;;;;;5067027;28;20055;-66
2023/01/10 10:04:26;;;;;;;23.67;4.55;;;7.00;99.90;;;;;;5087676;28;20040;-66
2023/01/10 10:06:52;;;;;;;28.00;5.10;;;7.00;99.90;;;;;;5067274;28;20096;-67
2023/01/10 10:09:30;;;;;;;27.80;6.03;;;7.00;99.90;;;;;;5080770;28;20167;-67
2023/01/10 10:12:04;;;;;;;31.33;5.78;;;7.00;99.90;;;;;;5088091;28;20056;-67
2023/01/10 10:14:55;;;;;;;24.95;4.45;;;7.00;99.90;;;;;;5078875;28;20253;-67
2023/01/10 10:17:39;;;;;;;30.58;5.65;;;7.00;99.90;;;;;;5080328;28;20036;-66
2023/01/10 10:20:34;;;;;;;28.80;6.50;;;7.00;99.90;;;;;;5081537;28;20083;-67
2023/01/10 10:23:24;;;;;;;34.20;6.80;;;7.00;99.90;;;;;;5063220;28;20071;-66
2023/01/10 10:26:13;;;;;;;33.80;6.43;;;7.10;99.90;;;;;;5084078;28;20459;-67
2023/01/10 10:29:06;;;;;;;27.13;6.80;;;7.10;99.90;;;;;;5086686;28;20036;-67
2023/01/10 10:31:49;;;;;;;34.83;8.02;;;7.10;99.90;;;;;;5085405;28;20040;-67
2023/01/10 10:34:31;;;;;;;34.50;9.00;;;7.10;99.90;;;;;;5076210;28;20041;-66
2023/01/10 10:37:10;;;;;;;29.08;8.48;;;7.10;99.90;;;;;;5068219;28;20457;-67
2023/01/10 10:39:52;;;;;;;34.03;7.78;;;7.00;99.90;;;;;;5058446;28;20561;-67
2023/01/10 10:42:19;;;;;;;28.98;7.43;;;7.10;99.90;;;;;;5079092;28;20037;-67
2023/01/10 10:44:56;;;;;;;37.10;8.40;;;7.00;99.90;;;;;;5081437;28;20115;-67
2023/01/10 10:47:23;;;;;;;35.90;8.98;;;7.00;99.90;;;;;;5067669;28;20536;-67
2023/01/10 10:50:00;;;;;;;27.63;8.43;;;7.00;99.90;;;;;;5084647;28;20045;-67
2023/01/10 10:52:31;;;;;;;33.25;8.20;;;7.10;99.90;;;;;;5086902;28;20032;-67
2023/01/10 10:54:57;;;;;;;32.53;9.88;;;7.10;99.90;;;;;;5083966;28;20028;-67
2023/01/10 10:57:27;;;;;;;32.00;9.52;;;7.10;99.90;;;;;;5084489;28;20037;-67
2023/01/10 10:59:54;;;;;;;32.20;8.90;;;7.10;99.90;;;;;;5067623;28;20090;-67
2023/01/10 11:02:22;;;;;;;24.13;9.02;;;7.10;99.90;;;;;;5053652;28;20048;-67
2023/01/10 11:04:51;;;;;;;27.98;9.52;;;7.10;99.90;;;;;;5064459;28;20052;-67
2023/01/10 11:07:18;;;;;;;28.75;9.27;;;7.10;99.90;;;;;;5081507;28;20634;-67
2023/01/10 11:12:17;;;;;;;28.48;8.32;;;7.00;99.90;;;;;;5084753;28;20078;-67
2023/01/10 11:14:52;;;;;;;27.73;7.93;;;7.10;99.90;;;;;;5085268;28;20029;-67
2023/01/10 11:17:30;;;;;;;31.05;8.27;;;7.10;99.90;;;;;;5066276;28;20040;-67
2023/01/10 11:20:05;;;;;;;30.27;7.55;;;7.10;99.90;;;;;;5081860;28;20039;-67
2023/01/10 11:22:38;;;;;;;27.40;7.70;;;7.10;99.90;;;;;;5079233;28;20093;-66
2023/01/10 11:25:04;;;;;;;29.20;8.68;;;7.10;99.90;;;;;;5083183;28;20101;-67
2023/01/10 11:27:35;;;;;;;27.42;7.28;;;7.10;99.90;;;;;;5064108;28;20073;-67
2023/01/10 11:30:06;;;;;;;27.73;7.05;;;7.10;99.90;;;;;;5066591;28;20043;-67
2023/01/10 11:32:36;;;;;;;25.83;7.15;;;7.10;99.90;;;;;;5080875;28;20036;-67
2023/01/10 11:35:35;;;;;;;28.35;7.20;;;7.10;99.90;;;;;;5068103;28;20044;-67
2023/01/10 11:38:17;;;;;;;26.95;6.78;;;7.10;99.90;;;;;;5070985;28;20095;-67
2023/01/10 11:40:55;;;;;;;25.65;6.57;;;7.10;99.90;;;;;;5067081;28;20129;-67
2023/01/10 11:43:25;;;;;;;21.40;6.05;;;7.10;99.90;;;;;;5076607;28;20158;-67
2023/01/10 11:46:03;;;;;;;27.83;6.25;;;7.10;99.90;;;;;;5085147;28;20115;-67
2023/01/10 11:48:48;;;;;;;29.15;6.30;;;7.00;99.90;;;;;;5083803;28;20044;-67
2023/01/10 11:51:32;;;;;;;29.42;5.85;;;7.00;99.90;;;;;;5080119;28;20097;-67
2023/01/10 11:54:10;;;;;;;25.95;6.50;;;7.00;99.90;;;;;;5085743;28;20515;-67
2023/01/10 11:56:42;;;;;;;26.10;5.57;;;7.00;99.90;;;;;;5086416;28;20063;-67
2023/01/10 11:59:15;;;;;;;25.50;5.57;;;7.00;99.90;;;;;;5081977;28;20109;-67
2023/01/10 12:01:40;;;;;;;26.77;5.78;;;7.00;99.90;;;;;;5081562;28;20044;-67
2023/01/10 12:04:16;;;;;;;33.55;6.35;;;7.00;99.90;;;;;;5081181;28;20032;-67
2023/01/10 12:06:52;;;;;;;24.88;5.57;;;7.00;99.90;;;;;;5080137;28;20105;-67
2023/01/10 12:09:33;;;;;;;25.67;5.20;;;7.00;99.90;;;;;;5050628;28;20451;-67
2023/01/10 12:12:19;;;;;;;21.95;5.38;;;6.90;99.90;;;;;;5061423;28;20044;-67
2023/01/10 12:14:46;;;;;;;28.67;5.13;;;7.00;99.90;;;;;;5078908;28;20119;-67
2023/01/10 12:17:20;;;;;;;21.33;4.55;;;6.90;99.90;;;;;;5078817;28;20090;-67
2023/01/10 12:19:46;;;;;;;27.20;5.10;;;6.90;99.90;;;;;;5080812;28;20123;-67
2023/01/10 12:22:14;;;;;;;23.85;4.82;;;6.90;99.90;;;;;;5062512;28;20127;-67
2023/01/10 12:24:44;;;;;;;22.60;4.55;;;6.90;99.90;;;;;;5078987;28;20048;-67
2023/01/10 12:27:16;;;;;;;24.63;4.38;;;6.90;99.90;;;;;;5078435;28;20119;-67
2023/01/10 12:30:05;;;;;;;27.58;5.22;;;6.90;99.90;;;;;;5079865;28;20051;-67
2023/01/10 12:32:38;;;;;;;23.35;5.55;;;6.90;99.90;;;;;;5067710;28;20664;-67
2023/01/10 12:35:12;;;;;;;26.65;6.03;;;6.90;99.90;;;;;;5081989;28;20044;-67
2023/01/10 12:37:54;;;;;;;22.73;4.93;;;6.90;99.90;;;;;;5076818;28;20503;-67
2023/01/10 12:40:46;;;;;;;24.95;5.07;;;6.80;99.90;;;;;;5080541;28;20059;-68
2023/01/10 12:46:39;;;;;;;26.75;5.35;;;6.80;99.90;;;;;;5080707;28;20049;-68
2023/01/10 12:49:28;;;;;;;21.70;4.80;;;6.80;99.90;;;;;;5079458;28;20044;-68
2023/01/10 12:51:58;;;;;;;22.77;5.13;;;6.80;99.90;;;;;;5078749;28;20395;-68
2023/01/10 12:54:27;;;;;;;24.95;5.07;;;6.90;99.90;;;;;;5078389;28;20033;-68
2023/01/10 12:56:54;;;;;;;24.95;5.75;;;6.80;99.90;;;;;;5077132;28;20060;-66
2023/01/10 12:59:28;;;;;;;26.27;5.53;;;6.80;99.90;;;;;;5079014;28;20210;-66
2023/01/10 13:02:00;;;;;;;26.25;6.10;;;6.80;99.90;;;;;;5062134;28;20082;-66
2023/01/10 13:04:28;;;;;;;28.65;5.90;;;6.80;99.90;;;;;;5072999;28;20036;-66
2023/01/10 13:06:55;;;;;;;22.75;5.28;;;6.80;99.90;;;;;;5072041;28;20120;-66
2023/01/10 13:09:27;;;;;;;27.02;5.85;;;6.80;99.90;;;;;;5079524;28;20040;-66
2023/01/10 13:12:01;;;;;;;22.25;5.13;;;6.80;99.90;;;;;;5078974;28;20104;-67
2023/01/10 13:14:36;;;;;;;18.25;4.55;;;6.70;99.90;;;;;;5058932;28;20382;-67
2023/01/10 13:17:23;;;;;;;24.20;5.55;;;6.70;99.90;;;;;;5073584;28;20040;-67
2023/01/10 13:20:17;;;;;;;28.20;5.50;;;6.70;99.90;;;;;;5064740;28;20066;-67
2023/01/10 13:22:55;;;;;;;28.63;5.18;;;6.70;99.90;;;;;;5050552;28;20048;-67